createdAt,value
2023-03-03T00:01:48.551Z,1.98
2023-03-03T00:04:18.989Z,2.02
2023-03-03T00:06:49.538Z,2.13
2023-03-03T00:09:22.721Z,2.16
2023-03-03T00:11:59.192Z,2.25
2023-03-03T00:14:33.468Z,2.24
2023-03-03T00:17:05.239Z,2.22
2023-03-03T00:19:45.129Z,2.12
2023-03-03T00:22:26.058Z,1.96
2023-03-03T00:24:59.208Z,1.90
2023-03-03T00:27:33.589Z,1.95
2023-03-03T00:30:04.644Z,1.88
2023-03-03T00:32:47.251Z,1.78
2023-03-03T00:35:27.578Z,1.69
2023-03-03T00:38:01.375Z,1.80
2023-03-03T00:40:38.742Z,1.90
2023-03-03T00:43:21.124Z,1.98
2023-03-03T00:45:52.660Z,1.98
2023-03-03T00:48:26.607Z,1.94
2023-03-03T00:50:58.710Z,1.85
2023-03-03T00:53:30.929Z,1.69
2023-03-03T00:56:04.033Z,1.67
2023-03-03T00:58:34.513Z,1.77
2023-03-03T01:01:05.797Z,1.87
2023-03-03T01:03:48.417Z,1.94
2023-03-03T01:06:18.852Z,1.96
2023-03-03T01:08:49.487Z,1.87
2023-03-03T01:11:26.263Z,1.73
2023-03-03T01:13:59.576Z,1.66
2023-03-03T01:16:30.665Z,1.77
2023-03-03T01:19:01.310Z,1.85
2023-03-03T01:21:31.948Z,1.94
2023-03-03T01:24:02.742Z,1.96
2023-03-03T01:26:35.913Z,1.92
2023-03-03T01:29:06.517Z,1.81
2023-03-03T01:31:37.342Z,1.67
2023-03-03T01:34:08.023Z,1.75
2023-03-03T01:36:38.696Z,1.82
2023-03-03T01:39:09.254Z,1.95
2023-03-03T01:41:42.474Z,2.00
2023-03-03T01:44:14.810Z,1.95
2023-03-03T01:46:56.983Z,1.86
2023-03-03T01:49:32.696Z,1.73
2023-03-03T01:52:05.944Z,1.72
2023-03-03T01:54:42.508Z,1.80
2023-03-03T01:57:22.337Z,1.80
2023-03-03T01:59:55.545Z,1.78
2023-03-03T02:02:28.486Z,1.90
2023-03-03T02:04:59.348Z,1.90
2023-03-03T02:07:32.158Z,1.83
2023-03-03T02:10:09.252Z,1.70
2023-03-03T02:12:45.826Z,1.55
2023-03-03T02:15:39.602Z,1.70
2023-03-03T02:18:12.971Z,1.79
2023-03-03T02:20:54.811Z,1.92
2023-03-03T02:23:31.965Z,1.92
2023-03-03T02:26:22.451Z,1.84
2023-03-03T02:28:57.154Z,1.69
2023-03-03T02:31:29.942Z,1.55
2023-03-03T02:34:01.250Z,1.64
2023-03-03T02:36:33.377Z,1.72
2023-03-03T02:39:09.218Z,1.68
2023-03-03T02:41:47.972Z,1.58
2023-03-03T02:44:20.180Z,1.73
2023-03-03T02:46:53.012Z,1.78
2023-03-03T02:49:27.988Z,1.73
2023-03-03T02:51:59.232Z,1.64
2023-03-03T02:54:32.901Z,1.49
2023-03-03T02:57:09.261Z,1.57
2023-03-03T02:59:39.742Z,1.68
2023-03-03T03:02:14.840Z,1.79
2023-03-03T03:04:45.785Z,1.85
2023-03-03T03:07:19.558Z,1.80
2023-03-03T03:09:50.311Z,1.73
2023-03-03T03:12:23.545Z,1.59
2023-03-03T03:14:57.473Z,1.57
2023-03-03T03:17:28.197Z,1.68
2023-03-03T03:19:58.842Z,1.77
2023-03-03T03:22:30.171Z,1.83
2023-03-03T03:25:01.122Z,1.80
2023-03-03T03:27:34.437Z,1.73
2023-03-03T03:30:05.209Z,1.62
2023-03-03T03:32:36.480Z,1.48
2023-03-03T03:35:08.144Z,1.53
2023-03-03T03:37:39.541Z,1.63
2023-03-03T03:40:11.030Z,1.60
2023-03-03T03:42:45.648Z,1.59
2023-03-03T03:45:17.964Z,1.69
2023-03-03T03:47:50.724Z,1.74
2023-03-03T03:50:22.274Z,1.66
2023-03-03T03:52:52.940Z,1.53
2023-03-03T03:55:23.610Z,1.42
2023-03-03T03:57:58.550Z,1.53
2023-03-03T04:00:29.633Z,1.61
2023-03-03T04:03:03.595Z,1.55
2023-03-03T04:05:34.572Z,1.64
2023-03-03T04:08:05.462Z,1.74
2023-03-03T04:10:37.203Z,1.71
2023-03-03T04:13:11.778Z,1.60
2023-03-03T04:15:43.448Z,1.46
2023-03-03T04:18:14.931Z,1.37
2023-03-03T04:20:45.757Z,1.51
2023-03-03T04:23:16.221Z,1.61
2023-03-03T04:25:46.862Z,1.56
2023-03-03T04:28:22.171Z,1.47
2023-03-03T04:30:54.092Z,1.55
2023-03-03T04:33:26.175Z,1.64
2023-03-03T04:35:57.401Z,1.76
2023-03-03T04:38:28.044Z,1.81
2023-03-03T04:41:00.208Z,1.77
2023-03-03T04:43:36.487Z,1.70
2023-03-03T04:46:08.582Z,1.56
2023-03-03T04:48:41.565Z,1.42
2023-03-03T04:51:13.290Z,1.48
2023-03-03T04:53:43.758Z,1.56
2023-03-03T04:56:14.324Z,1.52
2023-03-03T04:58:47.659Z,1.43
2023-03-03T05:01:19.917Z,1.33
2023-03-03T05:03:51.160Z,1.45
2023-03-03T05:06:21.895Z,1.53
2023-03-03T05:08:52.368Z,1.50
2023-03-03T05:11:23.192Z,1.42
2023-03-03T05:13:56.659Z,1.34
2023-03-03T05:16:27.778Z,1.48
2023-03-03T05:18:58.734Z,1.53
2023-03-03T05:21:29.586Z,1.46
2023-03-03T05:24:00.345Z,1.37
2023-03-03T05:26:31.048Z,1.31
2023-03-03T05:29:04.325Z,1.43
2023-03-03T05:31:35.083Z,1.49
2023-03-03T05:34:05.926Z,1.43
2023-03-03T05:36:36.577Z,1.36
2023-03-03T05:39:07.636Z,1.34
2023-03-03T05:41:38.995Z,1.48
2023-03-03T05:44:12.383Z,1.50
2023-03-03T05:46:43.164Z,1.46
2023-03-03T05:49:13.665Z,1.37
2023-03-03T05:51:44.615Z,1.34
2023-03-03T05:54:15.181Z,1.49
2023-03-03T05:56:45.992Z,1.52
2023-03-03T05:59:19.374Z,1.47
2023-03-03T06:01:50.093Z,1.43
2023-03-03T06:04:20.722Z,1.42
2023-03-03T06:06:51.900Z,1.53
2023-03-03T06:09:22.736Z,1.52
2023-03-03T06:11:53.732Z,1.47
2023-03-03T06:14:27.436Z,1.48
2023-03-03T06:16:58.131Z,1.60
2023-03-03T06:19:28.997Z,1.65
2023-03-03T06:22:00.895Z,1.61
2023-03-03T06:24:31.910Z,1.50
2023-03-03T06:27:03.170Z,1.40
2023-03-03T06:29:36.413Z,1.54
2023-03-03T06:32:07.512Z,1.64
2023-03-03T06:34:38.059Z,1.57
2023-03-03T06:37:08.868Z,1.49
2023-03-03T06:39:39.423Z,1.38
2023-03-03T06:42:10.032Z,1.51
2023-03-03T06:44:43.213Z,1.62
2023-03-03T06:47:13.915Z,1.63
2023-03-03T06:49:44.485Z,1.57
2023-03-03T06:52:17.248Z,1.72
2023-03-03T06:54:47.983Z,1.84
2023-03-03T06:57:23.559Z,1.84
2023-03-03T06:59:59.030Z,1.85
2023-03-03T07:02:29.739Z,1.98
2023-03-03T07:05:00.471Z,2.01
2023-03-03T07:07:31.098Z,2.00
2023-03-03T07:10:01.725Z,1.90
2023-03-03T07:12:33.993Z,1.80
2023-03-03T07:15:17.984Z,1.73
2023-03-03T07:17:51.425Z,1.82
2023-03-03T07:20:25.307Z,1.86
2023-03-03T07:22:55.863Z,1.79
2023-03-03T07:25:35.611Z,1.79
2023-03-03T07:28:18.149Z,1.92
2023-03-03T07:30:51.510Z,1.95
2023-03-03T07:33:28.460Z,1.91
2023-03-03T07:36:01.125Z,1.88
2023-03-03T07:38:38.818Z,1.79
2023-03-03T07:41:17.470Z,1.92
2023-03-03T07:43:55.276Z,2.03
2023-03-03T07:46:34.048Z,2.16
2023-03-03T07:49:05.297Z,2.26
2023-03-03T07:51:42.643Z,2.21
2023-03-03T07:54:28.781Z,2.15
2023-03-03T07:57:00.986Z,2.02
2023-03-03T07:59:32.368Z,2.17
2023-03-03T08:02:05.647Z,2.21
2023-03-03T08:04:44.039Z,2.18
2023-03-03T08:07:19.740Z,2.10
2023-03-03T08:09:53.703Z,2.06
2023-03-03T08:12:34.879Z,2.16
2023-03-03T08:15:24.636Z,2.21
2023-03-03T08:17:59.472Z,2.12
2023-03-03T08:20:46.142Z,2.08
2023-03-03T08:23:18.241Z,2.20
2023-03-03T08:25:50.516Z,2.28
2023-03-03T08:28:21.855Z,2.26
2023-03-03T08:31:05.514Z,2.20
2023-03-03T08:33:38.894Z,2.20
2023-03-03T08:36:10.671Z,2.29
2023-03-03T08:38:41.835Z,2.29
2023-03-03T08:41:12.909Z,2.25
2023-03-03T08:43:45.573Z,2.16
2023-03-03T08:46:16.551Z,2.24
2023-03-03T08:48:49.973Z,2.33
2023-03-03T08:51:20.674Z,2.29
2023-03-03T08:53:51.189Z,2.15
2023-03-03T08:56:21.898Z,2.21
2023-03-03T08:59:02.334Z,2.32
2023-03-03T09:01:33.769Z,2.46
2023-03-03T09:04:07.125Z,2.57
2023-03-03T09:06:37.796Z,2.68
2023-03-03T09:09:08.366Z,2.73
2023-03-03T09:11:38.954Z,2.67
2023-03-03T09:14:14.639Z,2.56
2023-03-03T09:16:51.726Z,2.42
2023-03-03T09:19:32.661Z,2.57
2023-03-03T09:22:14.902Z,2.68
2023-03-03T09:24:46.086Z,2.67
2023-03-03T09:27:22.356Z,2.60
2023-03-03T09:29:52.829Z,2.77
2023-03-03T09:32:39.354Z,2.84
2023-03-03T09:35:39.300Z,2.80
2023-03-03T09:38:27.762Z,2.71
2023-03-03T09:41:28.751Z,2.83
2023-03-03T09:44:12.532Z,2.89
2023-03-03T09:46:55.620Z,2.85
2023-03-03T09:49:35.127Z,2.89
2023-03-03T09:52:28.181Z,3.01
2023-03-03T09:55:09.547Z,3.03
2023-03-03T09:58:10.871Z,2.99
2023-03-03T10:00:54.701Z,2.89
2023-03-03T10:03:46.763Z,2.97
2023-03-03T10:06:24.814Z,3.05
2023-03-03T10:09:16.054Z,3.03
2023-03-03T10:11:53.387Z,3.08
2023-03-03T10:14:58.849Z,3.17
2023-03-03T10:17:42.130Z,3.18
2023-03-03T10:20:49.760Z,3.13
2023-03-03T10:23:25.136Z,3.00
2023-03-03T10:26:14.577Z,3.18
2023-03-03T10:29:10.681Z,3.30
2023-03-03T10:31:52.509Z,3.47
2023-03-03T10:34:37.531Z,3.55
2023-03-03T10:37:12.428Z,3.51
2023-03-03T10:39:55.685Z,3.42
2023-03-03T10:42:45.866Z,3.39
2023-03-03T10:45:37.773Z,3.51
2023-03-03T10:48:38.735Z,3.55
2023-03-03T10:51:25.243Z,3.62
2023-03-03T10:54:12.483Z,3.75
2023-03-03T10:56:53.632Z,3.77
2023-03-03T10:59:47.283Z,3.69
2023-03-03T11:02:25.514Z,3.53
2023-03-03T11:05:24.746Z,3.66
2023-03-03T11:08:02.125Z,3.75
2023-03-03T11:10:49.353Z,3.86
2023-03-03T11:13:27.564Z,3.90
2023-03-03T11:16:14.970Z,3.78
2023-03-03T11:19:05.095Z,3.79
2023-03-03T11:21:43.717Z,3.90
2023-03-03T11:24:48.675Z,3.82
2023-03-03T11:27:34.819Z,3.64
2023-03-03T11:30:21.486Z,3.73
2023-03-03T11:33:05.186Z,3.74
2023-03-03T11:35:41.357Z,3.71
2023-03-03T11:38:27.501Z,3.53
2023-03-03T11:41:00.492Z,3.56
2023-03-03T11:43:37.555Z,3.62
2023-03-03T11:46:12.833Z,3.63
2023-03-03T11:48:51.977Z,3.56
2023-03-03T11:51:33.025Z,3.45
2023-03-03T11:54:08.783Z,3.55
2023-03-03T11:56:45.213Z,3.55
2023-03-03T11:59:45.197Z,3.45
2023-03-03T12:02:46.178Z,3.28
2023-03-03T12:05:31.170Z,3.35
2023-03-03T12:08:10.704Z,3.41
2023-03-03T12:10:50.150Z,3.37
2023-03-03T12:13:31.085Z,3.31
2023-03-03T12:16:10.762Z,3.22
2023-03-03T12:18:56.840Z,3.36
2023-03-03T12:21:41.814Z,3.37
2023-03-03T12:24:22.962Z,3.26
2023-03-03T12:27:02.728Z,3.17
2023-03-03T12:29:47.022Z,3.24
2023-03-03T12:32:29.525Z,3.32
2023-03-03T12:35:06.286Z,3.28
2023-03-03T12:37:54.466Z,3.20
2023-03-03T12:40:29.294Z,3.13
2023-03-03T12:43:19.790Z,3.23
2023-03-03T12:45:59.208Z,3.32
2023-03-03T12:48:39.793Z,3.22
2023-03-03T12:51:20.677Z,3.18
2023-03-03T12:54:36.850Z,3.35
2023-03-03T12:57:19.211Z,3.43
2023-03-03T13:00:00.249Z,3.37
2023-03-03T13:02:44.286Z,3.27
2023-03-03T13:05:24.997Z,3.38
2023-03-03T13:08:06.590Z,3.41
2023-03-03T13:10:49.130Z,3.37
2023-03-03T13:13:24.966Z,3.26
2023-03-03T13:16:06.537Z,3.32
2023-03-03T13:18:53.007Z,3.39
2023-03-03T13:21:29.998Z,3.35
2023-03-03T13:24:10.866Z,3.26
2023-03-03T13:26:47.894Z,3.20
2023-03-03T13:29:23.525Z,3.32
2023-03-03T13:31:58.953Z,3.40
2023-03-03T13:34:46.544Z,3.34
2023-03-03T13:37:23.696Z,3.27
2023-03-03T13:40:08.863Z,3.43
2023-03-03T13:42:46.762Z,3.46
2023-03-03T13:45:24.061Z,3.43
2023-03-03T13:48:04.887Z,3.33
2023-03-03T13:50:41.167Z,3.21
2023-03-03T13:53:32.537Z,3.25
2023-03-03T13:56:16.272Z,3.38
2023-03-03T13:58:56.549Z,3.35
2023-03-03T14:01:36.026Z,3.26
2023-03-03T14:04:16.226Z,3.27
2023-03-03T14:06:57.452Z,3.39
2023-03-03T14:09:52.241Z,3.35
2023-03-03T14:12:29.337Z,3.25
2023-03-03T14:15:10.726Z,3.15
2023-03-03T14:17:51.170Z,3.28
2023-03-03T14:20:27.628Z,3.37
2023-03-03T14:23:01.202Z,3.39
2023-03-03T14:25:56.600Z,3.49
2023-03-03T14:28:29.231Z,3.50
2023-03-03T14:31:19.764Z,3.42
2023-03-03T14:34:02.368Z,3.28
2023-03-03T14:36:36.813Z,3.31
2023-03-03T14:39:33.682Z,3.40
2023-03-03T14:42:05.077Z,3.38
2023-03-03T14:44:40.368Z,3.29
2023-03-03T14:47:27.088Z,3.42
2023-03-03T14:50:00.550Z,3.43
2023-03-03T14:52:33.463Z,3.36
2023-03-03T14:55:05.909Z,3.26
2023-03-03T14:57:51.433Z,3.21
2023-03-03T15:00:36.669Z,3.30
2023-03-03T15:03:24.456Z,3.27
2023-03-03T15:05:56.484Z,3.16
2023-03-03T15:08:34.524Z,3.09
2023-03-03T15:11:29.117Z,3.22
2023-03-03T15:14:15.600Z,3.22
2023-03-03T15:16:46.525Z,3.16
2023-03-03T15:19:40.997Z,3.05
2023-03-03T15:22:23.231Z,3.17
2023-03-03T15:25:01.919Z,3.21
2023-03-03T15:27:40.877Z,3.12
2023-03-03T15:30:23.327Z,2.98
2023-03-03T15:33:02.187Z,3.07
2023-03-03T15:35:50.513Z,3.09
2023-03-03T15:38:42.926Z,2.99
2023-03-03T15:41:25.299Z,2.86
2023-03-03T15:44:08.701Z,2.91
2023-03-03T15:47:04.005Z,3.00
2023-03-03T15:49:54.622Z,2.96
2023-03-03T15:52:41.384Z,2.94
2023-03-03T15:55:27.610Z,3.05
2023-03-03T15:58:13.756Z,3.07
2023-03-03T16:00:58.314Z,3.02
2023-03-03T16:03:35.396Z,2.88
2023-03-03T16:06:10.897Z,2.93
2023-03-03T16:08:52.901Z,3.01
2023-03-03T16:11:31.362Z,2.98
2023-03-03T16:14:18.507Z,2.90
2023-03-03T16:16:55.123Z,2.88
2023-03-03T16:19:41.953Z,2.96
2023-03-03T16:22:27.549Z,2.96
2023-03-03T16:25:16.811Z,2.88
2023-03-03T16:27:53.678Z,2.80
2023-03-03T16:30:31.402Z,2.93
2023-03-03T16:33:17.170Z,2.96
2023-03-03T16:35:55.555Z,2.90
2023-03-03T16:38:32.654Z,2.79
2023-03-03T16:41:10.114Z,2.86
2023-03-03T16:43:49.462Z,2.93
2023-03-03T16:46:32.723Z,2.91
2023-03-03T16:49:11.798Z,2.82
2023-03-03T16:51:51.745Z,2.92
2023-03-03T16:54:34.543Z,2.97
2023-03-03T16:57:19.673Z,2.94
2023-03-03T16:59:59.547Z,2.80
2023-03-03T17:02:46.676Z,2.68
2023-03-03T17:05:28.124Z,2.84
2023-03-03T17:08:12.681Z,2.85
2023-03-03T17:10:49.139Z,2.79
2023-03-03T17:14:01.737Z,2.77
2023-03-03T17:16:51.755Z,2.86
2023-03-03T17:19:38.450Z,2.73
2023-03-03T17:22:15.719Z,2.71
2023-03-03T17:25:01.169Z,2.38
2023-03-03T17:27:50.084Z,2.27
2023-03-03T17:30:36.684Z,2.36
2023-03-03T17:33:24.904Z,2.13
2023-03-03T17:36:12.683Z,1.71
2023-03-03T17:38:57.245Z,1.28
2023-03-03T17:41:36.549Z,1.04
2023-03-03T17:44:16.922Z,0.93
2023-03-03T17:46:55.219Z,0.86
2023-03-03T17:49:52.746Z,0.89
2023-03-03T17:52:46.415Z,0.99
2023-03-03T17:55:53.122Z,1.12
2023-03-03T17:58:36.087Z,1.29
2023-03-03T18:01:18.600Z,1.42
2023-03-03T18:04:14.999Z,1.38
2023-03-03T18:07:01.708Z,1.27
2023-03-03T18:09:50.849Z,1.04
2023-03-03T18:12:32.332Z,1.33
2023-03-03T18:15:32.988Z,1.52
2023-03-03T18:18:13.030Z,1.73
2023-03-03T18:21:11.331Z,1.89
2023-03-03T18:23:45.251Z,2.11
2023-03-03T18:26:41.581Z,2.29
2023-03-03T18:29:23.333Z,2.44
2023-03-03T18:32:07.694Z,2.58
2023-03-03T18:34:40.880Z,2.73
2023-03-03T18:37:41.888Z,2.87
2023-03-03T18:40:31.919Z,2.99
2023-03-03T18:43:03.389Z,3.09
2023-03-03T18:45:53.569Z,3.18
2023-03-03T18:48:48.836Z,3.29
2023-03-03T18:51:48.942Z,3.36
2023-03-03T18:54:34.788Z,3.44
2023-03-03T18:57:15.271Z,3.33
2023-03-03T18:59:57.505Z,3.00
2023-03-03T19:02:46.627Z,2.51
2023-03-03T19:05:24.162Z,2.07
2023-03-03T19:07:59.969Z,1.72
2023-03-03T19:10:57.680Z,1.70
2023-03-03T19:13:52.562Z,1.76
2023-03-03T19:16:38.735Z,1.91
2023-03-03T19:19:15.486Z,2.06
2023-03-03T19:21:48.320Z,2.18
2023-03-03T19:24:37.032Z,2.36
2023-03-03T19:27:35.252Z,2.53
2023-03-03T19:30:23.129Z,2.66
2023-03-03T19:33:20.915Z,2.79
2023-03-03T19:36:17.690Z,2.61
2023-03-03T19:39:00.915Z,2.20
2023-03-03T19:41:50.122Z,2.19
2023-03-03T19:44:42.540Z,2.30
2023-03-03T19:47:25.584Z,2.34
2023-03-03T19:50:16.963Z,2.34
2023-03-03T19:52:53.544Z,2.34
2023-03-03T19:55:29.391Z,2.30
2023-03-03T19:58:17.951Z,2.22
2023-03-03T20:00:59.478Z,2.14
2023-03-03T20:03:59.964Z,2.13
2023-03-03T20:06:46.926Z,2.34
2023-03-03T20:09:29.818Z,2.41
2023-03-03T20:12:19.393Z,2.39
2023-03-03T20:14:55.199Z,2.35
2023-03-03T20:17:47.621Z,2.31
2023-03-03T20:20:56.538Z,2.21
2023-03-03T20:23:33.660Z,2.11
2023-03-03T20:26:11.025Z,2.11
2023-03-03T20:29:06.069Z,2.09
2023-03-03T20:31:43.812Z,2.07
2023-03-03T20:34:24.866Z,2.08
2023-03-03T20:37:08.067Z,2.12
2023-03-03T20:40:01.331Z,2.15
2023-03-03T20:42:48.256Z,2.17
2023-03-03T20:45:34.919Z,2.16
2023-03-03T20:48:22.317Z,2.19
2023-03-03T20:51:04.190Z,2.21
2023-03-03T20:53:45.304Z,2.23
2023-03-03T20:56:21.390Z,2.24
2023-03-03T20:59:08.016Z,2.25
2023-03-03T21:01:46.904Z,2.24
2023-03-03T21:04:21.950Z,2.27
2023-03-03T21:06:55.766Z,2.25
2023-03-03T21:09:29.256Z,2.28
2023-03-03T21:12:00.755Z,2.26
2023-03-03T21:14:33.456Z,2.25
2023-03-03T21:17:14.239Z,2.25
2023-03-03T21:19:44.958Z,2.27
2023-03-03T21:22:18.345Z,2.28
2023-03-03T21:24:54.058Z,2.26
2023-03-03T21:27:28.081Z,2.24
2023-03-03T21:30:12.437Z,2.23
2023-03-03T21:32:45.545Z,2.22
2023-03-03T21:35:19.703Z,2.25
2023-03-03T21:37:54.965Z,2.40
2023-03-03T21:40:27.774Z,2.73
2023-03-03T21:43:00.456Z,3.31
2023-03-03T21:45:31.167Z,3.95
2023-03-03T21:48:03.388Z,4.52
2023-03-03T21:50:36.198Z,5.04
2023-03-03T21:53:09.386Z,5.52
2023-03-03T21:55:40.290Z,5.96
2023-03-03T21:58:11.305Z,6.28
2023-03-03T22:00:43.875Z,6.71
2023-03-03T22:03:15.693Z,7.05
2023-03-03T22:05:46.653Z,7.34
2023-03-03T22:08:22.887Z,7.53
2023-03-03T22:10:56.362Z,7.64
2023-03-03T22:13:28.086Z,7.72
2023-03-03T22:15:58.739Z,7.51
2023-03-03T22:18:29.533Z,6.46
2023-03-03T22:21:00.255Z,5.18
2023-03-03T22:23:33.528Z,4.21
2023-03-03T22:26:04.831Z,3.39
2023-03-03T22:28:35.474Z,3.17
2023-03-03T22:31:06.338Z,2.97
2023-03-03T22:33:37.048Z,3.04
2023-03-03T22:36:08.574Z,3.03
2023-03-03T22:38:42.116Z,3.11
2023-03-03T22:41:12.906Z,3.10
2023-03-03T22:43:43.563Z,3.15
2023-03-03T22:46:14.437Z,3.14
2023-03-03T22:48:45.059Z,2.97
2023-03-03T22:51:15.605Z,2.81
2023-03-03T22:53:48.832Z,2.84
2023-03-03T22:56:19.459Z,2.91
2023-03-03T22:58:50.092Z,2.99
2023-03-03T23:01:20.754Z,3.04
2023-03-03T23:03:51.305Z,2.98
2023-03-03T23:06:21.995Z,2.87
2023-03-03T23:08:55.359Z,2.72
2023-03-03T23:11:27.680Z,2.54
2023-03-03T23:13:58.335Z,2.65
2023-03-03T23:16:29.131Z,2.71
2023-03-03T23:18:59.743Z,2.82
2023-03-03T23:21:30.386Z,2.87
2023-03-03T23:24:04.032Z,2.79
2023-03-03T23:26:34.683Z,2.70
2023-03-03T23:29:05.312Z,2.67
2023-03-03T23:31:36.041Z,2.76
2023-03-03T23:34:06.776Z,2.77
2023-03-03T23:36:37.511Z,2.70
2023-03-03T23:39:10.973Z,2.57
2023-03-03T23:41:41.503Z,2.55
2023-03-03T23:44:12.343Z,2.67
2023-03-03T23:46:43.876Z,2.77
2023-03-03T23:49:14.546Z,2.87
2023-03-03T23:51:45.890Z,2.89
2023-03-03T23:54:19.169Z,2.82
2023-03-03T23:56:49.780Z,2.69
2023-03-03T23:59:20.325Z,2.53
